Naponee, Nebraska
Current Conditions -  °F | °C
As of 7:15 AM on Thursday 30 Oct 2014 (Local Time) from KHDE Reporting Station
Clear Clear  
Wind Chill: 36°   Ceiling: Unl
Heat Index: 42°   Visibility: 10mi
Dew Point: 28°   Wind: 9mph
Humidity: 60%   Direction: 320°NW
Pressure: 30.14"   Gusts: NA
Location:  40.08°N, 99.14°W
Report Text: KHDE 301215Z AUTO 32008KT 10SM CLR 05/M02 A3014 RMK AO2 T00531020
Loading
Personal Weather Stations






























Interactive Weather Map
Tropical Storm Tracking
New forecast layout! Learn more

10-Day Weather Forecast

Advertisements
Track Severe Weather on mobile